createdAt,value
2019-01-18T00:00:13.358Z,1.88
2019-01-18T00:01:13.333Z,1.89
2019-01-18T00:02:13.304Z,1.88
2019-01-18T00:03:13.272Z,1.89
2019-01-18T00:04:13.265Z,1.86
2019-01-18T00:05:13.216Z,1.88
2019-01-18T00:06:13.188Z,1.97
2019-01-18T00:07:13.160Z,1.98
2019-01-18T00:08:13.133Z,2.04
2019-01-18T00:09:13.104Z,2.03
2019-01-18T00:10:13.079Z,2.04
2019-01-18T00:11:13.047Z,2.01
2019-01-18T00:12:13.018Z,2.10
2019-01-18T00:13:12.989Z,2.08
2019-01-18T00:14:12.962Z,2.00
2019-01-18T00:15:12.933Z,2.07
2019-01-18T00:16:12.908Z,2.15
2019-01-18T00:17:12.880Z,2.04
2019-01-18T00:18:12.855Z,2.18
2019-01-18T00:19:12.824Z,2.19
2019-01-18T00:20:12.793Z,2.18
2019-01-18T00:21:12.765Z,2.16
2019-01-18T00:22:12.738Z,2.19
2019-01-18T00:23:12.712Z,2.19
2019-01-18T00:24:12.679Z,2.21
2019-01-18T00:25:12.652Z,2.21
2019-01-18T00:26:12.625Z,2.26
2019-01-18T00:27:12.596Z,2.30
2019-01-18T00:28:12.571Z,2.26
2019-01-18T00:29:12.540Z,2.33
2019-01-18T00:30:12.515Z,2.32
2019-01-18T00:31:12.488Z,2.33
2019-01-18T00:32:12.455Z,2.32
2019-01-18T00:33:12.441Z,2.36
2019-01-18T00:34:12.401Z,2.30
2019-01-18T00:35:12.384Z,2.34
2019-01-18T00:36:12.342Z,2.32
2019-01-18T00:37:12.335Z,2.32
2019-01-18T00:38:12.298Z,2.33
2019-01-18T00:39:12.264Z,2.33
2019-01-18T00:40:12.234Z,2.30
2019-01-18T00:41:12.204Z,2.30
2019-01-18T00:42:12.188Z,2.34
2019-01-18T00:43:12.149Z,2.34
2019-01-18T00:44:12.122Z,2.26
2019-01-18T00:45:12.090Z,2.32
2019-01-18T00:46:12.062Z,2.36
2019-01-18T00:47:12.035Z,2.32
2019-01-18T00:48:12.012Z,2.39
2019-01-18T00:49:11.984Z,2.34
2019-01-18T00:50:11.951Z,2.37
2019-01-18T00:51:11.924Z,2.32
2019-01-18T00:52:11.902Z,2.28
2019-01-18T00:53:11.867Z,2.28
2019-01-18T00:54:11.841Z,2.39
2019-01-18T00:55:11.810Z,2.32
2019-01-18T00:56:11.792Z,2.33
2019-01-18T00:57:11.755Z,2.34
2019-01-18T00:58:11.756Z,2.32
2019-01-18T00:59:11.701Z,2.32
2019-01-18T01:00:11.697Z,2.30
2019-01-18T01:01:11.645Z,2.32
2019-01-18T01:02:11.616Z,2.36
2019-01-18T01:03:11.586Z,2.33
2019-01-18T01:04:11.565Z,2.37
2019-01-18T01:05:11.530Z,2.26
2019-01-18T01:06:11.506Z,2.25
2019-01-18T01:07:11.496Z,2.28
2019-01-18T01:08:11.446Z,2.30
2019-01-18T01:09:11.418Z,2.32
2019-01-18T01:10:11.394Z,2.22
2019-01-18T01:11:11.364Z,2.16
2019-01-18T01:12:11.335Z,2.23
2019-01-18T01:13:11.306Z,2.16
2019-01-18T01:14:11.279Z,2.14
2019-01-18T01:15:11.258Z,2.08
2019-01-18T01:16:11.222Z,2.00
2019-01-18T01:17:11.195Z,2.08
2019-01-18T01:18:11.167Z,2.01
2019-01-18T01:19:11.141Z,2.00
2019-01-18T01:20:11.116Z,2.03
2019-01-18T01:21:11.082Z,2.03
2019-01-18T01:22:11.055Z,2.04
2019-01-18T01:23:11.034Z,2.05
2019-01-18T01:24:10.998Z,2.12
2019-01-18T01:25:10.974Z,2.04
2019-01-18T01:26:10.944Z,2.21
2019-01-18T01:27:10.917Z,2.18
2019-01-18T01:28:10.885Z,2.16
2019-01-18T01:29:10.860Z,2.21
2019-01-18T01:30:10.830Z,2.28
2019-01-18T01:31:10.802Z,2.28
2019-01-18T01:32:10.776Z,2.18
2019-01-18T01:33:10.746Z,2.21
2019-01-18T01:34:10.718Z,2.22
2019-01-18T01:35:10.690Z,2.33
2019-01-18T01:36:10.661Z,2.37
2019-01-18T01:37:10.689Z,2.30
2019-01-18T01:38:10.605Z,2.33
2019-01-18T01:39:10.576Z,2.28
2019-01-18T01:40:10.548Z,2.34
2019-01-18T01:41:10.532Z,2.34
2019-01-18T01:42:10.492Z,2.26
2019-01-18T01:43:10.465Z,2.37
2019-01-18T01:44:10.436Z,2.32
2019-01-18T01:45:10.410Z,2.32
2019-01-18T01:46:10.382Z,2.32
2019-01-18T01:47:10.353Z,2.26
2019-01-18T01:48:10.324Z,2.30
2019-01-18T01:49:10.302Z,2.28
2019-01-18T01:50:10.289Z,2.26
2019-01-18T01:51:10.241Z,2.32
2019-01-18T01:52:10.215Z,2.28
2019-01-18T01:53:10.189Z,2.28
2019-01-18T01:54:10.159Z,2.28
2019-01-18T01:55:10.134Z,2.30
2019-01-18T01:56:10.101Z,2.28
2019-01-18T01:57:10.074Z,2.25
2019-01-18T01:58:10.045Z,2.21
2019-01-18T01:59:10.017Z,2.21
2019-01-18T02:00:09.990Z,2.23
2019-01-18T02:01:09.960Z,2.14
2019-01-18T02:02:09.942Z,2.21
2019-01-18T02:03:09.905Z,2.18
2019-01-18T02:04:09.875Z,2.19
2019-01-18T02:05:09.849Z,2.15
2019-01-18T02:06:09.822Z,2.14
2019-01-18T02:07:09.797Z,2.05
2019-01-18T02:08:09.765Z,2.07
2019-01-18T02:09:09.736Z,2.05
2019-01-18T02:10:09.710Z,1.95
2019-01-18T02:11:09.680Z,1.98
2019-01-18T02:12:09.652Z,1.97
2019-01-18T02:13:09.624Z,1.92
2019-01-18T02:14:09.597Z,1.88
2019-01-18T02:15:09.568Z,1.88
2019-01-18T02:16:09.544Z,1.85
2019-01-18T02:17:09.531Z,1.78
2019-01-18T02:18:09.485Z,1.79
2019-01-18T02:19:09.456Z,1.68
2019-01-18T02:20:09.427Z,1.76
2019-01-18T02:21:09.401Z,1.71
2019-01-18T02:22:09.371Z,1.71
2019-01-18T02:23:09.389Z,1.74
2019-01-18T02:24:09.313Z,1.63
2019-01-18T02:25:09.287Z,1.61
2019-01-18T02:26:09.258Z,1.64
2019-01-18T02:27:09.233Z,1.66
2019-01-18T02:28:09.205Z,1.63
2019-01-18T02:29:09.173Z,1.63
2019-01-18T02:30:09.146Z,1.53
2019-01-18T02:31:09.118Z,1.61
2019-01-18T02:32:09.092Z,1.58
2019-01-18T02:33:09.061Z,1.60
2019-01-18T02:34:09.032Z,1.56
2019-01-18T02:35:09.002Z,1.60
2019-01-18T02:36:08.974Z,1.58
2019-01-18T02:37:08.954Z,1.46
2019-01-18T02:38:08.920Z,1.45
2019-01-18T02:39:08.889Z,1.46
2019-01-18T02:40:08.862Z,1.45
2019-01-18T02:41:08.847Z,1.45
2019-01-18T02:42:08.808Z,1.42
2019-01-18T02:43:08.776Z,1.38
2019-01-18T02:44:08.750Z,1.38
2019-01-18T02:45:08.719Z,1.36
2019-01-18T02:46:08.691Z,1.34
2019-01-18T02:47:08.677Z,1.34
2019-01-18T02:48:08.634Z,1.34
2019-01-18T02:49:08.609Z,1.27
2019-01-18T02:50:08.577Z,1.30
2019-01-18T02:51:08.547Z,1.25
2019-01-18T02:52:08.523Z,1.22
2019-01-18T02:53:08.499Z,1.16
2019-01-18T02:54:08.477Z,1.21
2019-01-18T02:55:08.434Z,1.20
2019-01-18T02:56:08.408Z,1.16
2019-01-18T02:57:08.379Z,1.20
2019-01-18T02:58:08.353Z,1.20
2019-01-18T02:59:08.320Z,1.20
2019-01-18T03:00:08.297Z,1.18
2019-01-18T03:01:08.265Z,1.20
2019-01-18T03:02:08.237Z,1.16
2019-01-18T03:03:08.205Z,1.16
2019-01-18T03:04:08.178Z,1.07
2019-01-18T03:05:08.151Z,1.20
2019-01-18T03:06:08.127Z,1.16
2019-01-18T03:07:08.095Z,1.02
2019-01-18T03:08:08.067Z,1.10
2019-01-18T03:09:08.037Z,0.91
2019-01-18T03:10:08.009Z,0.91
2019-01-18T03:11:07.985Z,0.92
2019-01-18T03:12:07.951Z,1.00
2019-01-18T03:13:07.925Z,0.94
2019-01-18T03:14:07.894Z,0.91
2019-01-18T03:15:07.869Z,0.94
2019-01-18T03:16:07.854Z,0.94
2019-01-18T03:17:07.810Z,0.94
2019-01-18T03:18:07.781Z,0.94
2019-01-18T03:19:07.750Z,0.94
2019-01-18T03:20:07.723Z,0.84
2019-01-18T03:21:07.699Z,0.82
2019-01-18T03:22:07.668Z,0.77
2019-01-18T03:23:07.636Z,0.81
2019-01-18T03:24:07.614Z,0.73
2019-01-18T03:25:07.579Z,0.85
2019-01-18T03:26:07.550Z,0.77
2019-01-18T03:27:07.523Z,0.81
2019-01-18T03:28:07.506Z,0.77
2019-01-18T03:29:07.468Z,0.74
2019-01-18T03:30:18.280Z,0.84
2019-01-18T03:31:07.408Z,0.82
2019-01-18T03:32:07.378Z,0.81
2019-01-18T03:33:07.352Z,0.81
2019-01-18T03:34:07.325Z,0.74
2019-01-18T03:35:07.292Z,0.66
2019-01-18T03:36:07.264Z,0.73
2019-01-18T03:37:07.236Z,0.81
2019-01-18T03:38:07.207Z,0.81
2019-01-18T03:39:07.177Z,0.77
2019-01-18T03:40:07.150Z,0.70
2019-01-18T03:41:07.123Z,0.68
2019-01-18T03:42:07.093Z,0.74
2019-01-18T03:43:07.069Z,0.73
2019-01-18T03:44:07.033Z,0.64
2019-01-18T03:45:07.007Z,0.71
2019-01-18T03:46:06.985Z,0.59
2019-01-18T03:47:06.954Z,0.59
2019-01-18T03:48:06.920Z,0.64
2019-01-18T03:49:06.890Z,0.68
2019-01-18T03:50:06.862Z,0.64
2019-01-18T03:51:06.831Z,0.70
2019-01-18T03:52:06.805Z,0.76
2019-01-18T03:53:06.776Z,0.63
2019-01-18T03:54:06.745Z,0.61
2019-01-18T03:55:06.724Z,0.64
2019-01-18T03:56:06.696Z,0.58
2019-01-18T03:57:06.660Z,0.66
2019-01-18T03:58:06.631Z,0.67
2019-01-18T03:59:06.601Z,0.64
2019-01-18T04:00:06.578Z,0.66
2019-01-18T04:01:06.545Z,0.58
2019-01-18T04:02:06.518Z,0.55
2019-01-18T04:03:06.503Z,0.55
2019-01-18T04:04:06.457Z,0.52
2019-01-18T04:05:06.429Z,0.58
2019-01-18T04:06:06.443Z,0.59
2019-01-18T04:07:06.376Z,0.55
2019-01-18T04:08:06.350Z,0.52
2019-01-18T04:09:06.318Z,0.52
2019-01-18T04:10:06.285Z,0.52
2019-01-18T04:11:06.256Z,0.63
2019-01-18T04:12:06.232Z,0.55
2019-01-18T04:13:06.206Z,0.58
2019-01-18T04:14:06.177Z,0.56
2019-01-18T04:15:06.144Z,0.56
2019-01-18T04:16:06.121Z,0.52
2019-01-18T04:17:06.115Z,0.47
2019-01-18T04:18:06.059Z,0.44
2019-01-18T04:19:06.025Z,0.47
2019-01-18T04:20:05.998Z,0.42
2019-01-18T04:21:05.972Z,0.44
2019-01-18T04:22:05.940Z,0.40
2019-01-18T04:23:05.929Z,0.40
2019-01-18T04:24:05.882Z,0.45
2019-01-18T04:25:05.853Z,0.36
2019-01-18T04:26:05.862Z,0.31
2019-01-18T04:27:05.811Z,0.19
2019-01-18T04:28:05.765Z,0.26
2019-01-18T04:29:05.739Z,0.24
2019-01-18T04:30:05.707Z,0.24
2019-01-18T04:31:05.691Z,0.23
2019-01-18T04:32:05.651Z,0.18
2019-01-18T04:33:05.633Z,0.26
2019-01-18T04:34:05.593Z,0.18
2019-01-18T04:35:05.564Z,0.29
2019-01-18T04:36:05.550Z,0.23
2019-01-18T04:37:05.506Z,0.23
2019-01-18T04:38:05.479Z,0.24
2019-01-18T04:39:05.448Z,0.24
2019-01-18T04:40:05.427Z,0.19
2019-01-18T04:41:05.398Z,0.24
2019-01-18T04:42:05.363Z,0.23
2019-01-18T04:43:05.331Z,0.26
2019-01-18T04:44:05.304Z,0.20
2019-01-18T04:45:05.277Z,0.24
2019-01-18T04:46:05.244Z,0.13
2019-01-18T04:47:05.222Z,0.23
2019-01-18T04:48:05.194Z,0.20
2019-01-18T04:49:05.158Z,0.24
2019-01-18T04:50:05.130Z,0.23
2019-01-18T04:51:05.098Z,0.26
2019-01-18T04:52:05.073Z,0.19
2019-01-18T04:53:05.046Z,0.20
2019-01-18T04:54:05.023Z,0.18
2019-01-18T04:55:04.989Z,0.11
2019-01-18T04:56:04.958Z,0.12
2019-01-18T04:57:04.927Z,0.12
2019-01-18T04:58:04.897Z,0.11
2019-01-18T04:59:04.871Z,0.13
2019-01-18T05:00:04.841Z,0.06
2019-01-18T05:01:04.811Z,0.09
2019-01-18T05:02:04.791Z,0.06
2019-01-18T05:03:04.757Z,0.08
2019-01-18T05:04:04.729Z,0.02
2019-01-18T05:05:04.692Z,0.05
2019-01-18T05:06:04.665Z,0.06
2019-01-18T05:07:04.638Z,0.05
2019-01-18T05:08:04.605Z,0.09
2019-01-18T05:09:04.586Z,0.09
2019-01-18T05:10:04.554Z,0.02
2019-01-18T05:11:04.519Z,-0.06
2019-01-18T05:12:04.490Z,-0.05
2019-01-18T05:13:04.459Z,-0.07
2019-01-18T05:14:04.440Z,-0.07
2019-01-18T05:15:04.414Z,-0.06
2019-01-18T05:16:04.381Z,0.02
2019-01-18T05:17:04.430Z,0.09
2019-01-18T05:18:04.315Z,0.08
2019-01-18T05:19:04.286Z,0.06
2019-01-18T05:20:04.255Z,0.01
2019-01-18T05:21:04.257Z,0.02
2019-01-18T05:22:04.197Z,0.02
2019-01-18T05:23:04.171Z,0.06
2019-01-18T05:24:04.139Z,0.02
2019-01-18T05:25:04.258Z,0.08
2019-01-18T05:26:04.081Z,0.05
2019-01-18T05:27:04.055Z,0.09
2019-01-18T05:28:04.021Z,0.09
2019-01-18T05:29:03.995Z,0.11
2019-01-18T05:30:03.967Z,0.06
2019-01-18T05:31:03.934Z,0.08
2019-01-18T05:32:03.904Z,0.02
2019-01-18T05:33:03.874Z,0.02
2019-01-18T05:34:03.856Z,0.00
2019-01-18T05:35:03.828Z,0.02
2019-01-18T05:36:03.784Z,0.01
2019-01-18T05:37:03.756Z,0.06
2019-01-18T05:38:03.725Z,0.09
2019-01-18T05:39:03.761Z,0.06
2019-01-18T05:40:03.672Z,0.06
2019-01-18T05:41:03.638Z,0.05
2019-01-18T05:42:03.610Z,0.00
2019-01-18T05:43:03.578Z,-0.03
2019-01-18T05:44:03.551Z,-0.03
2019-01-18T05:45:03.527Z,-0.03
2019-01-18T05:46:03.490Z,-0.07
2019-01-18T05:47:03.459Z,-0.06
2019-01-18T05:48:03.431Z,-0.05
2019-01-18T05:49:03.401Z,-0.09
2019-01-18T05:50:03.677Z,-0.07
2019-01-18T05:51:03.344Z,-0.03
2019-01-18T05:52:03.313Z,-0.06
2019-01-18T05:53:03.283Z,-0.12
2019-01-18T05:54:03.284Z,-0.05
2019-01-18T05:55:03.225Z,-0.07
2019-01-18T05:56:03.198Z,-0.13
2019-01-18T05:57:03.166Z,-0.13
2019-01-18T05:58:03.136Z,-0.20
2019-01-18T05:59:03.118Z,-0.15
2019-01-18T06:00:03.081Z,-0.18
2019-01-18T06:01:03.050Z,-0.20
2019-01-18T06:02:03.022Z,-0.23
2019-01-18T06:03:02.992Z,-0.15
2019-01-18T06:04:02.962Z,-0.21
2019-01-18T06:05:02.933Z,-0.18
2019-01-18T06:06:02.902Z,-0.23
2019-01-18T06:07:02.874Z,-0.21
2019-01-18T06:08:02.854Z,-0.20
2019-01-18T06:09:02.825Z,-0.21
2019-01-18T06:10:02.785Z,-0.23
2019-01-18T06:11:02.755Z,-0.26
2019-01-18T06:12:02.839Z,-0.20
2019-01-18T06:13:02.701Z,-0.23
2019-01-18T06:14:02.665Z,-0.28
2019-01-18T06:15:02.650Z,-0.24
2019-01-18T06:16:02.607Z,-0.20
2019-01-18T06:17:02.577Z,-0.31
2019-01-18T06:18:02.550Z,-0.27
2019-01-18T06:19:02.518Z,-0.39
2019-01-18T06:20:02.487Z,-0.26
2019-01-18T06:21:02.472Z,-0.35
2019-01-18T06:22:02.431Z,-0.39
2019-01-18T06:23:02.404Z,-0.26
2019-01-18T06:24:02.380Z,-0.26
2019-01-18T06:25:02.356Z,-0.24
2019-01-18T06:26:02.313Z,-0.30
2019-01-18T06:27:02.283Z,-0.27
2019-01-18T06:28:02.270Z,-0.30
2019-01-18T06:29:02.222Z,-0.28
2019-01-18T06:30:02.202Z,-0.28
2019-01-18T06:31:02.164Z,-0.30
2019-01-18T06:32:02.167Z,-0.31
2019-01-18T06:33:02.106Z,-0.33
2019-01-18T06:34:02.082Z,-0.41
2019-01-18T06:35:02.057Z,-0.36
2019-01-18T06:36:02.021Z,-0.23
2019-01-18T06:37:02.014Z,-0.30
2019-01-18T06:38:01.961Z,-0.30
2019-01-18T06:39:01.928Z,-0.35
2019-01-18T06:40:01.900Z,-0.38
2019-01-18T06:41:01.888Z,-0.26
2019-01-18T06:42:01.841Z,-0.31
2019-01-18T06:43:01.813Z,-0.31
2019-01-18T06:44:01.808Z,-0.38
2019-01-18T06:45:01.755Z,-0.42
2019-01-18T06:46:01.727Z,-0.38
2019-01-18T06:47:01.696Z,-0.38
2019-01-18T06:48:01.670Z,-0.39
2019-01-18T06:49:01.668Z,-0.53
2019-01-18T06:50:01.611Z,-0.44
2019-01-18T06:51:01.580Z,-0.39
2019-01-18T06:52:01.553Z,-0.49
2019-01-18T06:53:01.525Z,-0.46
2019-01-18T06:54:01.525Z,-0.35
2019-01-18T06:55:01.482Z,-0.45
2019-01-18T06:56:01.429Z,-0.44
2019-01-18T06:57:01.400Z,-0.39
2019-01-18T06:58:01.378Z,-0.41
2019-01-18T06:59:01.342Z,-0.42
2019-01-18T07:00:01.319Z,-0.59
2019-01-18T07:01:01.303Z,-0.41
2019-01-18T07:02:01.266Z,-0.46
2019-01-18T07:03:01.226Z,-0.54
2019-01-18T07:04:01.203Z,-0.54
2019-01-18T07:05:01.166Z,-0.56
2019-01-18T07:06:01.139Z,-0.48
2019-01-18T07:07:01.105Z,-0.54
2019-01-18T07:08:01.073Z,-0.45
2019-01-18T07:09:01.059Z,-0.46
2019-01-18T07:10:01.018Z,-0.54
2019-01-18T07:11:00.985Z,-0.39
2019-01-18T07:12:00.987Z,-0.51
2019-01-18T07:13:00.928Z,-0.53
2019-01-18T07:14:00.899Z,-0.46
2019-01-18T07:15:00.870Z,-0.54
2019-01-18T07:16:00.837Z,-0.57
2019-01-18T07:17:00.809Z,-0.53
2019-01-18T07:18:00.780Z,-0.54
2019-01-18T07:19:00.755Z,-0.41
2019-01-18T07:20:00.722Z,-0.54
2019-01-18T07:21:00.721Z,-0.49
2019-01-18T07:22:00.666Z,-0.48
2019-01-18T07:23:00.655Z,-0.41
2019-01-18T07:24:00.600Z,-0.54
2019-01-18T07:25:00.579Z,-0.51
2019-01-18T07:26:00.542Z,-0.53
2019-01-18T07:27:00.516Z,-0.44
2019-01-18T07:28:00.481Z,-0.51
2019-01-18T07:29:00.458Z,-0.51
2019-01-18T07:30:00.423Z,-0.45
2019-01-18T07:31:00.393Z,-0.39
2019-01-18T07:32:00.365Z,-0.41
2019-01-18T07:33:00.334Z,-0.36
2019-01-18T07:34:00.305Z,-0.45
2019-01-18T07:35:00.300Z,-0.44
2019-01-18T07:36:00.246Z,-0.42
2019-01-18T07:37:00.218Z,-0.38
2019-01-18T07:38:00.212Z,-0.39
2019-01-18T07:39:00.553Z,-0.39
2019-01-18T07:40:00.172Z,-0.30
2019-01-18T07:41:00.096Z,-0.27
2019-01-18T07:42:00.112Z,-0.28
2019-01-18T07:43:00.038Z,-0.23
2019-01-18T07:44:00.109Z,-0.31
2019-01-18T07:44:59.978Z,-0.27
2019-01-18T07:46:00.077Z,-0.20
2019-01-18T07:46:59.928Z,-0.30
2019-01-18T07:47:59.891Z,-0.28
2019-01-18T07:48:59.857Z,-0.30
2019-01-18T07:49:59.826Z,-0.31
2019-01-18T07:50:59.797Z,-0.31
2019-01-18T07:51:59.767Z,-0.27
2019-01-18T07:52:59.737Z,-0.33
2019-01-18T07:53:59.708Z,-0.31
2019-01-18T07:54:59.679Z,-0.23
2019-01-18T07:55:59.654Z,-0.24
2019-01-18T07:56:59.617Z,-0.24
2019-01-18T07:57:59.591Z,-0.28
2019-01-18T07:58:59.561Z,-0.23
2019-01-18T07:59:59.530Z,-0.23
2019-01-18T08:00:59.498Z,-0.28
2019-01-18T08:01:59.470Z,-0.28
2019-01-18T08:02:59.438Z,-0.30
2019-01-18T08:03:59.411Z,-0.26
2019-01-18T08:04:59.380Z,-0.30
2019-01-18T08:05:59.349Z,-0.30
2019-01-18T08:06:59.319Z,-0.28
2019-01-18T08:07:59.291Z,-0.41
2019-01-18T08:08:59.260Z,-0.39
2019-01-18T08:09:59.230Z,-0.36
2019-01-18T08:10:59.201Z,-0.33
2019-01-18T08:11:59.170Z,-0.31
2019-01-18T08:12:59.140Z,-0.33
2019-01-18T08:13:59.115Z,-0.30
2019-01-18T08:14:59.080Z,-0.28
2019-01-18T08:15:59.050Z,-0.33
2019-01-18T08:16:59.020Z,-0.28
2019-01-18T08:17:58.994Z,-0.30
2019-01-18T08:18:58.961Z,-0.30
2019-01-18T08:19:58.933Z,-0.31
2019-01-18T08:20:58.903Z,-0.30
2019-01-18T08:21:58.872Z,-0.31
2019-01-18T08:22:58.843Z,-0.28
2019-01-18T08:23:58.813Z,-0.26
2019-01-18T08:24:58.783Z,-0.28
2019-01-18T08:25:58.753Z,-0.35
2019-01-18T08:26:58.723Z,-0.33
2019-01-18T08:27:58.693Z,-0.31
2019-01-18T08:28:58.663Z,-0.30
2019-01-18T08:29:58.635Z,-0.28
2019-01-18T08:30:58.603Z,-0.26
2019-01-18T08:31:58.574Z,-0.26
2019-01-18T08:32:58.589Z,-0.28
2019-01-18T08:33:58.515Z,-0.26
2019-01-18T08:34:58.483Z,-0.28
2019-01-18T08:35:58.454Z,-0.21
2019-01-18T08:36:58.423Z,-0.28
2019-01-18T08:37:58.395Z,-0.15
2019-01-18T08:38:58.364Z,-0.20
2019-01-18T08:39:58.334Z,-0.23
2019-01-18T08:40:58.306Z,-0.18
2019-01-18T08:41:58.278Z,-0.20
2019-01-18T08:42:58.244Z,-0.15
2019-01-18T08:43:58.218Z,-0.21
2019-01-18T08:44:58.189Z,-0.21
2019-01-18T08:45:58.156Z,-0.21
2019-01-18T08:46:58.126Z,-0.15
2019-01-18T08:47:58.096Z,-0.09
2019-01-18T08:48:58.074Z,-0.02
2019-01-18T08:49:58.050Z,0.06
2019-01-18T08:50:58.007Z,0.01
2019-01-18T08:51:57.978Z,0.06
2019-01-18T08:52:57.948Z,0.06
2019-01-18T08:53:57.924Z,0.02
2019-01-18T08:54:57.890Z,0.09
2019-01-18T08:55:57.888Z,0.06
2019-01-18T08:56:57.831Z,0.11
2019-01-18T08:57:57.803Z,0.08
2019-01-18T08:58:57.793Z,0.11
2019-01-18T08:59:57.741Z,0.15
2019-01-18T09:00:57.709Z,0.16
2019-01-18T09:01:57.684Z,0.09
2019-01-18T09:02:57.649Z,0.13
2019-01-18T09:03:57.620Z,0.16
2019-01-18T09:04:57.593Z,0.19
2019-01-18T09:05:57.560Z,0.12
2019-01-18T09:06:57.530Z,0.13
2019-01-18T09:07:57.507Z,0.15
2019-01-18T09:08:57.472Z,0.20
2019-01-18T09:09:57.442Z,0.19
2019-01-18T09:10:57.413Z,0.26
2019-01-18T09:11:57.382Z,0.33
2019-01-18T09:12:57.360Z,0.36
2019-01-18T09:13:59.889Z,0.37
2019-01-18T09:14:57.349Z,0.39
2019-01-18T09:15:57.265Z,0.39
2019-01-18T09:16:57.296Z,0.39
2019-01-18T09:17:57.203Z,0.47
2019-01-18T09:18:57.194Z,0.36
2019-01-18T09:19:57.150Z,0.45
2019-01-18T09:20:57.117Z,0.48
2019-01-18T09:21:57.086Z,0.55
2019-01-18T09:22:57.057Z,0.63
2019-01-18T09:23:57.025Z,0.52
2019-01-18T09:24:56.998Z,0.59
2019-01-18T09:25:56.968Z,0.66
2019-01-18T09:26:56.943Z,0.64
2019-01-18T09:27:56.907Z,0.61
2019-01-18T09:28:56.877Z,0.73
2019-01-18T09:29:56.849Z,0.73
2019-01-18T09:30:56.818Z,0.73
2019-01-18T09:31:56.792Z,0.76
2019-01-18T09:32:56.761Z,0.74
2019-01-18T09:33:56.732Z,0.76
2019-01-18T09:34:56.699Z,0.78
2019-01-18T09:35:56.669Z,0.71
2019-01-18T09:36:56.640Z,0.71
2019-01-18T09:37:56.617Z,0.82
2019-01-18T09:38:56.579Z,0.82
2019-01-18T09:39:56.551Z,0.86
2019-01-18T09:40:56.522Z,0.81
2019-01-18T09:41:56.492Z,0.92
2019-01-18T09:42:56.480Z,0.92
2019-01-18T09:43:56.447Z,0.94
2019-01-18T09:44:56.407Z,1.02
2019-01-18T09:45:56.375Z,0.99
2019-01-18T09:46:56.364Z,0.99
2019-01-18T09:47:56.332Z,1.04
2019-01-18T09:48:56.286Z,1.06
2019-01-18T09:49:56.256Z,0.99
2019-01-18T09:50:56.229Z,1.06
2019-01-18T09:51:56.198Z,1.10
2019-01-18T09:52:56.166Z,1.13
2019-01-18T09:53:56.138Z,1.16
2019-01-18T09:54:56.107Z,1.20
2019-01-18T09:55:56.079Z,1.21
2019-01-18T09:56:56.049Z,1.25
2019-01-18T09:57:56.021Z,1.28
2019-01-18T09:58:55.992Z,1.27
2019-01-18T09:59:55.964Z,1.30
2019-01-18T10:00:55.937Z,1.32
2019-01-18T10:01:55.906Z,1.30
2019-01-18T10:02:55.873Z,1.36
2019-01-18T10:03:55.844Z,1.42
2019-01-18T10:04:55.817Z,1.45
2019-01-18T10:05:55.785Z,1.39
2019-01-18T10:06:55.759Z,1.46
2019-01-18T10:07:55.726Z,1.48
2019-01-18T10:08:55.699Z,1.45
2019-01-18T10:09:55.667Z,1.52
2019-01-18T10:10:55.637Z,1.53
2019-01-18T10:11:55.615Z,1.61
2019-01-18T10:12:55.578Z,1.60
2019-01-18T10:13:55.550Z,1.57
2019-01-18T10:14:55.520Z,1.61
2019-01-18T10:15:55.493Z,1.67
2019-01-18T10:16:55.462Z,1.67
2019-01-18T10:18:00.644Z,1.75
2019-01-18T10:18:55.404Z,1.79
2019-01-18T10:19:55.374Z,1.78
2019-01-18T10:20:55.349Z,1.67
2019-01-18T10:21:55.316Z,1.67
2019-01-18T10:22:55.286Z,1.76
2019-01-18T10:23:55.276Z,1.75
2019-01-18T10:24:55.229Z,1.78
2019-01-18T10:25:55.199Z,1.95
2019-01-18T10:26:55.171Z,1.85
2019-01-18T10:27:55.141Z,1.85
2019-01-18T10:28:55.110Z,1.84
2019-01-18T10:29:55.081Z,1.85
2019-01-18T10:30:55.062Z,1.86
2019-01-18T10:31:56.265Z,1.92
2019-01-18T10:32:54.994Z,1.92
2019-01-18T10:33:54.964Z,2.03
2019-01-18T10:34:54.934Z,2.03
2019-01-18T10:35:54.905Z,1.97
2019-01-18T10:36:54.975Z,2.03
2019-01-18T10:37:54.856Z,2.01
2019-01-18T10:38:54.820Z,2.08
2019-01-18T10:39:54.794Z,2.04
2019-01-18T10:40:54.762Z,2.05
2019-01-18T10:41:54.734Z,2.10
2019-01-18T10:42:55.614Z,2.10
2019-01-18T10:43:54.672Z,2.14
2019-01-18T10:44:54.649Z,2.14
2019-01-18T10:45:54.621Z,2.19
2019-01-18T10:46:54.586Z,2.22
2019-01-18T10:47:54.560Z,2.22
2019-01-18T10:48:54.529Z,2.15
2019-01-18T10:49:54.499Z,2.26
2019-01-18T10:50:54.470Z,2.32
2019-01-18T10:51:54.442Z,2.36
2019-01-18T10:52:54.414Z,2.34
2019-01-18T10:53:54.386Z,2.36
2019-01-18T10:54:54.358Z,2.33
2019-01-18T10:55:54.330Z,2.44
2019-01-18T10:56:54.299Z,2.44
2019-01-18T10:57:54.270Z,2.47
2019-01-18T10:58:54.240Z,2.41
2019-01-18T10:59:54.218Z,2.46
2019-01-18T11:00:54.190Z,2.50
2019-01-18T11:01:59.690Z,2.54
2019-01-18T11:02:54.124Z,2.52
2019-01-18T11:03:54.096Z,2.57
2019-01-18T11:04:54.069Z,2.54
2019-01-18T11:05:54.039Z,2.55
2019-01-18T11:06:54.010Z,2.52
2019-01-18T11:07:53.991Z,2.59
2019-01-18T11:08:53.954Z,2.52
2019-01-18T11:09:53.928Z,2.64
2019-01-18T11:10:53.895Z,2.64
2019-01-18T11:11:53.868Z,2.72
2019-01-18T11:12:53.841Z,2.83
2019-01-18T11:13:53.810Z,2.75
2019-01-18T11:14:53.781Z,2.82
2019-01-18T11:15:53.753Z,2.77
2019-01-18T11:16:53.727Z,2.69
2019-01-18T11:17:53.695Z,2.82
2019-01-18T11:18:53.670Z,2.83
2019-01-18T11:19:53.641Z,2.88
2019-01-18T11:20:53.612Z,2.87
2019-01-18T11:21:53.581Z,2.90
2019-01-18T11:22:53.552Z,2.94
2019-01-18T11:23:53.524Z,2.94
2019-01-18T11:24:53.498Z,2.87
2019-01-18T11:25:53.468Z,2.87
2019-01-18T11:26:53.438Z,2.90
2019-01-18T11:27:53.410Z,2.91
2019-01-18T11:28:53.384Z,2.98
2019-01-18T11:29:53.355Z,3.05
2019-01-18T11:30:53.326Z,3.05
2019-01-18T11:31:53.318Z,2.94
2019-01-18T11:32:53.276Z,3.11
2019-01-18T11:33:53.241Z,3.11
2019-01-18T11:34:53.213Z,3.12
2019-01-18T11:35:53.184Z,3.11
2019-01-18T11:36:56.729Z,3.09
2019-01-18T11:37:53.127Z,3.09
2019-01-18T11:38:53.098Z,3.13
2019-01-18T11:39:53.074Z,3.16
2019-01-18T11:40:53.045Z,3.21
2019-01-18T11:41:53.014Z,3.22
2019-01-18T11:42:52.995Z,3.27
2019-01-18T11:43:52.957Z,3.30
2019-01-18T11:44:52.928Z,3.34
2019-01-18T11:45:52.907Z,3.34
2019-01-18T11:46:52.871Z,3.22
2019-01-18T11:47:52.846Z,3.41
2019-01-18T11:48:52.818Z,3.46
2019-01-18T11:49:52.788Z,3.46
2019-01-18T11:50:52.759Z,3.43
2019-01-18T11:51:52.733Z,3.46
2019-01-18T11:52:52.702Z,3.46
2019-01-18T11:53:52.674Z,3.43
2019-01-18T11:54:52.647Z,3.40
2019-01-18T11:55:52.617Z,3.45
2019-01-18T11:56:52.589Z,3.52
2019-01-18T11:57:52.566Z,3.56
2019-01-18T11:58:52.537Z,3.48
2019-01-18T11:59:52.506Z,3.50
2019-01-18T12:00:52.477Z,3.59
2019-01-18T12:01:52.450Z,3.58
2019-01-18T12:02:52.418Z,3.66
2019-01-18T12:03:52.397Z,3.61
2019-01-18T12:04:52.395Z,3.70
2019-01-18T12:05:52.342Z,3.64
2019-01-18T12:06:52.318Z,3.68
2019-01-18T12:07:52.286Z,3.64
2019-01-18T12:08:52.274Z,3.68
2019-01-18T12:09:52.236Z,3.74
2019-01-18T12:10:52.197Z,3.74
2019-01-18T12:11:52.169Z,3.73
2019-01-18T12:12:52.146Z,3.71
2019-01-18T12:13:52.112Z,3.81
2019-01-18T12:14:52.084Z,3.82
2019-01-18T12:15:52.059Z,3.91
2019-01-18T12:16:52.030Z,3.86
2019-01-18T12:17:52.003Z,3.88
2019-01-18T12:18:51.979Z,3.88
2019-01-18T12:19:51.945Z,3.92
2019-01-18T12:20:51.915Z,3.89
2019-01-18T12:21:51.889Z,3.99
2019-01-18T12:22:51.859Z,3.95
2019-01-18T12:23:51.846Z,3.99
2019-01-18T12:24:51.805Z,4.04
2019-01-18T12:25:51.777Z,4.06
2019-01-18T12:26:51.749Z,4.07
2019-01-18T12:27:51.722Z,4.06
2019-01-18T12:28:51.697Z,4.14
2019-01-18T12:29:51.666Z,4.12
2019-01-18T12:30:51.640Z,4.13
2019-01-18T12:31:51.609Z,4.14
2019-01-18T12:32:51.588Z,4.18
2019-01-18T12:33:51.560Z,4.20
2019-01-18T12:34:51.526Z,4.22
2019-01-18T12:35:51.498Z,4.22
2019-01-18T12:36:52.858Z,4.31
2019-01-18T12:37:51.444Z,4.30
2019-01-18T12:38:51.416Z,4.31
2019-01-18T12:39:51.388Z,4.31
2019-01-18T12:40:51.363Z,4.22
2019-01-18T12:41:51.334Z,4.30
2019-01-18T12:42:51.342Z,4.21
2019-01-18T12:43:51.281Z,4.30
2019-01-18T12:44:51.252Z,4.28
2019-01-18T12:45:51.224Z,4.30
2019-01-18T12:46:51.195Z,4.34
2019-01-18T12:47:51.299Z,4.32
2019-01-18T12:48:51.203Z,4.31
2019-01-18T12:49:51.115Z,4.34
2019-01-18T12:50:51.091Z,4.40
2019-01-18T12:51:51.059Z,4.40
2019-01-18T12:52:51.035Z,4.52
2019-01-18T12:53:51.011Z,4.52
2019-01-18T12:54:51.000Z,4.43
2019-01-18T12:55:50.948Z,4.43
2019-01-18T12:56:50.927Z,4.53
2019-01-18T12:57:51.752Z,4.58
2019-01-18T12:58:50.956Z,4.53
2019-01-18T12:59:50.842Z,4.58
2019-01-18T13:00:50.809Z,4.53
2019-01-18T13:01:50.783Z,4.66
2019-01-18T13:02:50.755Z,4.57
2019-01-18T13:03:50.743Z,4.67
2019-01-18T13:04:50.709Z,4.60
2019-01-18T13:05:50.723Z,4.53
2019-01-18T13:06:50.648Z,4.67
2019-01-18T13:07:50.622Z,4.68
2019-01-18T13:08:50.597Z,4.64
2019-01-18T13:09:50.566Z,4.75
2019-01-18T13:10:50.579Z,4.63
2019-01-18T13:11:50.515Z,4.67